KARB/ARB METAR and TAF weather

Enter ICAO airport designator
Station Type Date Time Source
KARB METAR 2018/12/10 23:53 UTC NOAA

KARB 102353Z 18006KT 9SM OVC021 M04/M06 A3016 RMK AO2 SLP226 T10391056 11017 21039 56008


Station Type Date Time Source
KARB Decoded METAR 2018/12/10 23:53 UTC NOAA

ANN ARBOR MUNICIPAL AIRPORT, MI, United States (KARB) 42-13N 083-45W 251M
Dec 10, 2018 - 06:53 PM EST / 2018.12.10 2353 UTC
Wind: from the S (180 degrees) at 7 MPH (6 KT):0
Visibility: 9 mile(s):0
Sky conditions: overcast
Temperature: 25.0 F (-3.9 C)
Windchill: 17 F (-8 C):1
Dew Point: 21.9 F (-5.6 C)
Relative Humidity: 87%
Pressure (altimeter): 30.16 in. Hg (1021 hPa)
Pressure tendency: 0.02 inches (0.8 hPa) lower than three hours ago
ob: KARB 102353Z 18006KT 9SM OVC021 M04/M06 A3016 RMK AO2 SLP226 T10391056 11017 21039 56008
cycle: 0

Station Type Date Time Source
KARB TAF UTC NOAA

Error!


Example: see airport list